Time;durP1;ratioP1;P1;durP2;ratioP2;P2;SDS_P1;SDS_P2;PMS_P1;PMS_P2;Temp;Humidity;BMP_temperature;BMP_pressure;BME280_temperature;BME280_humidity;BME280_pressure;Samples;Min_cycle;Max_cycle;Signal;HPM_P1;HPM_P2
2021/01/19 00:00:31;;;;;;;3.47;0.20;;;28.70;23.40;;;;;;5011405;28;20030;-76
2021/01/19 00:02:58;;;;;;;1.00;0.40;;;28.80;24.10;;;;;;5011330;28;20364;-74
2021/01/19 00:05:25;;;;;;;1.08;0.20;;;28.70;23.30;;;;;;5011379;28;20386;-75
2021/01/19 00:07:52;;;;;;;0.63;0.20;;;28.40;23.90;;;;;;5011518;28;20550;-77
2021/01/19 00:10:19;;;;;;;1.33;0.20;;;28.40;24.30;;;;;;5010989;28;20042;-74
2021/01/19 00:12:46;;;;;;;1.20;0.50;;;28.50;24.10;;;;;;5010886;28;20351;-74
2021/01/19 00:15:13;;;;;;;0.70;0.20;;;28.50;24.30;;;;;;5011429;28;20037;-79
2021/01/19 00:17:42;;;;;;;1.48;0.30;;;27.70;24.00;;;;;;5009745;28;20034;-80
2021/01/19 00:20:11;;;;;;;0.85;0.17;;;27.20;24.20;;;;;;4993840;28;20498;-76
2021/01/19 00:22:38;;;;;;;2.17;0.35;;;26.80;24.40;;;;;;5011240;28;20029;-78
2021/01/19 00:25:05;;;;;;;0.82;0.20;;;26.20;24.80;;;;;;4991419;28;20045;-75
2021/01/19 00:27:32;;;;;;;0.73;0.20;;;25.20;24.40;;;;;;5011527;28;20411;-78
2021/01/19 00:29:59;;;;;;;1.95;0.20;;;24.70;25.10;;;;;;4992723;28;20049;-77
2021/01/19 00:32:26;;;;;;;1.05;0.15;;;24.30;24.80;;;;;;5010951;28;20025;-80
2021/01/19 00:34:53;;;;;;;2.30;0.20;;;24.00;25.20;;;;;;5010965;28;20018;-78
2021/01/19 00:37:20;;;;;;;0.98;0.22;;;23.60;25.30;;;;;;5010865;28;20049;-80
2021/01/19 00:39:47;;;;;;;0.80;0.20;;;23.30;25.50;;;;;;5011239;28;20018;-79
2021/01/19 00:42:15;;;;;;;0.30;0.10;;;22.90;24.80;;;;;;5010618;28;20033;-83
2021/01/19 00:44:43;;;;;;;2.23;0.10;;;22.70;25.70;;;;;;4944506;28;1916424;-79
2021/01/19 00:47:10;;;;;;;1.80;0.10;;;22.60;25.70;;;;;;4995860;28;20033;-75
2021/01/19 00:49:37;;;;;;;1.10;0.10;;;22.20;25.60;;;;;;5011250;28;20037;-81
2021/01/19 00:52:04;;;;;;;2.05;0.22;;;21.80;26.00;;;;;;5011724;28;20042;-80
2021/01/19 00:54:31;;;;;;;1.17;0.20;;;21.50;25.80;;;;;;5011212;28;20030;-81
2021/01/19 00:56:58;;;;;;;0.82;0.20;;;21.30;25.50;;;;;;5012118;28;20037;-82
2021/01/19 00:59:25;;;;;;;0.30;0.08;;;21.10;25.70;;;;;;5010504;28;20045;-82
2021/01/19 01:01:52;;;;;;;1.20;0.17;;;21.10;26.80;;;;;;5011765;28;20022;-79
2021/01/19 01:04:28;;;;;;;0.38;0.10;;;20.90;26.10;;;;;;5012014;28;20038;-79
2021/01/19 01:06:55;;;;;;;0.70;0.10;;;20.70;26.10;;;;;;4993385;28;20034;-81
2021/01/19 01:09:22;;;;;;;0.73;0.20;;;20.50;25.90;;;;;;5011709;28;20028;-77
2021/01/19 01:11:49;;;;;;;2.95;0.20;;;20.40;25.50;;;;;;5011625;28;20038;-79
2021/01/19 01:14:16;;;;;;;0.30;0.10;;;20.20;25.30;;;;;;5010719;28;20030;-76
2021/01/19 01:16:43;;;;;;;0.38;0.22;;;20.10;25.60;;;;;;5011391;28;20034;-79
2021/01/19 01:19:10;;;;;;;0.25;0.13;;;20.00;25.30;;;;;;5012267;28;20137;-78
2021/01/19 01:21:39;;;;;;;0.40;0.20;;;19.90;25.70;;;;;;5010315;28;20038;-75
2021/01/19 01:24:07;;;;;;;1.02;0.15;;;19.80;25.00;;;;;;5012307;28;20042;-80
2021/01/19 01:26:35;;;;;;;2.15;0.30;;;19.70;25.40;;;;;;5012040;28;20042;-75
2021/01/19 01:29:06;;;;;;;2.38;0.20;;;19.60;25.00;;;;;;5011633;28;20025;-80
2021/01/19 01:31:36;;;;;;;1.15;0.20;;;19.60;25.40;;;;;;5010467;28;20046;-78
2021/01/19 01:34:05;;;;;;;0.85;0.30;;;19.50;25.60;;;;;;5011649;28;20489;-78
2021/01/19 01:36:42;;;;;;;1.85;0.10;;;19.40;25.40;;;;;;5012044;28;20022;-81
2021/01/19 01:39:09;;;;;;;0.52;0.10;;;19.20;26.10;;;;;;5014719;28;20026;-78
2021/01/19 01:41:36;;;;;;;0.47;0.13;;;19.20;25.30;;;;;;5014105;28;20029;-74
2021/01/19 01:44:03;;;;;;;0.30;0.10;;;19.10;25.40;;;;;;5014646;28;20026;-76
2021/01/19 01:46:35;;;;;;;0.28;0.20;;;19.00;25.40;;;;;;5010619;28;20038;-78
2021/01/19 01:49:04;;;;;;;2.05;0.10;;;18.90;26.10;;;;;;5014702;28;20030;-78
2021/01/19 01:51:33;;;;;;;2.90;0.20;;;18.90;26.00;;;;;;5011199;28;20042;-77
2021/01/19 01:54:01;;;;;;;3.22;0.30;;;18.70;25.90;;;;;;5014195;28;20038;-78
2021/01/19 01:56:29;;;;;;;3.92;0.30;;;18.60;26.30;;;;;;5014339;28;20379;-78
2021/01/19 01:58:56;;;;;;;0.65;0.20;;;18.50;25.80;;;;;;5014036;28;20029;-78
2021/01/19 02:01:24;;;;;;;3.80;0.20;;;18.50;26.30;;;;;;5014364;28;20037;-80
2021/01/19 02:03:52;;;;;;;2.78;0.25;;;18.40;26.00;;;;;;5014080;28;20029;-75
2021/01/19 02:06:20;;;;;;;0.95;0.25;;;18.40;26.00;;;;;;5013335;28;20033;-75
2021/01/19 02:08:49;;;;;;;1.40;0.30;;;18.40;26.30;;;;;;5013611;28;20033;-73
2021/01/19 02:11:50;;;;;;;3.00;0.22;;;18.30;25.90;;;;;;5014215;28;20045;-75
2021/01/19 02:14:40;;;;;;;0.90;0.20;;;18.30;25.80;;;;;;5013774;28;20390;-74
2021/01/19 02:17:38;;;;;;;3.13;0.30;;;18.30;25.90;;;;;;4996043;28;20280;-73
2021/01/19 02:20:44;;;;;;;1.52;0.60;;;18.40;25.80;;;;;;4998178;28;20390;-74
2021/01/19 02:23:32;;;;;;;0.73;0.20;;;18.40;25.70;;;;;;5014257;28;20373;-77
2021/01/19 02:26:18;;;;;;;2.45;0.40;;;18.40;25.60;;;;;;5013753;28;20025;-74
2021/01/19 02:28:52;;;;;;;4.70;0.80;;;18.30;25.90;;;;;;5012893;28;20033;-72
2021/01/19 02:31:43;;;;;;;3.35;1.05;;;18.20;25.80;;;;;;5013508;28;20038;-77
2021/01/19 02:34:19;;;;;;;3.33;0.17;;;18.20;26.10;;;;;;5013408;28;20485;-79
2021/01/19 02:36:50;;;;;;;1.52;0.40;;;18.20;26.10;;;;;;5013625;28;20037;-76
2021/01/19 02:40:01;;;;;;;0.60;0.40;;;18.10;26.30;;;;;;5013426;28;20030;-76
2021/01/19 02:42:51;;;;;;;1.45;0.35;;;18.10;25.80;;;;;;4933243;29;20040;-74
2021/01/19 02:45:18;;;;;;;0.93;0.52;;;18.10;26.00;;;;;;4914581;29;20075;-75
2021/01/19 02:47:45;;;;;;;1.15;0.50;;;18.10;26.00;;;;;;4897043;29;20162;-75
2021/01/19 02:50:12;;;;;;;2.25;0.40;;;18.10;26.00;;;;;;4911039;29;20059;-74
2021/01/19 02:52:41;;;;;;;2.03;0.60;;;18.00;25.90;;;;;;4894470;29;20484;-74
2021/01/19 02:55:10;;;;;;;2.33;0.30;;;17.90;26.20;;;;;;4914471;29;20036;-75
2021/01/19 02:58:16;;;;;;;1.20;0.30;;;17.90;26.10;;;;;;4899964;29;20045;-76
2021/01/19 03:01:03;;;;;;;1.10;0.40;;;17.80;26.50;;;;;;4914034;29;20048;-77
2021/01/19 03:03:36;;;;;;;1.92;0.15;;;17.80;26.10;;;;;;4895659;29;20355;-71
2021/01/19 03:06:19;;;;;;;4.22;0.73;;;17.80;26.30;;;;;;4880587;29;20041;-76
2021/01/19 03:08:50;;;;;;;4.07;0.35;;;17.70;26.20;;;;;;4913090;29;20048;-72
2021/01/19 03:11:18;;;;;;;1.55;0.28;;;17.70;26.70;;;;;;4911007;29;20213;-74
2021/01/19 03:13:47;;;;;;;0.75;0.20;;;17.60;26.30;;;;;;4908045;29;20032;-74
2021/01/19 03:16:15;;;;;;;1.42;0.25;;;17.60;26.30;;;;;;4894807;29;20520;-76
2021/01/19 03:18:44;;;;;;;1.10;0.30;;;17.60;26.50;;;;;;4911295;29;20468;-73
2021/01/19 03:21:12;;;;;;;0.38;0.20;;;17.60;26.10;;;;;;4953527;28;20023;-75
2021/01/19 03:23:40;;;;;;;1.05;0.30;;;17.60;26.30;;;;;;5011754;28;20387;-75
2021/01/19 03:26:08;;;;;;;1.02;0.20;;;17.50;26.50;;;;;;5011999;28;20045;-77
2021/01/19 03:28:35;;;;;;;0.88;0.40;;;17.40;26.70;;;;;;5011722;28;20037;-74
2021/01/19 03:31:03;;;;;;;0.50;0.30;;;17.30;26.80;;;;;;5011725;28;20501;-74
2021/01/19 03:33:30;;;;;;;2.95;0.20;;;17.30;26.60;;;;;;5012518;28;20030;-75
2021/01/19 03:35:58;;;;;;;1.30;0.20;;;17.40;26.40;;;;;;5012409;28;20037;-76
2021/01/19 03:38:25;;;;;;;0.22;0.20;;;17.30;26.80;;;;;;5012692;28;20030;-72
2021/01/19 03:40:52;;;;;;;1.27;0.20;;;17.30;26.60;;;;;;5011546;28;20048;-76
2021/01/19 03:43:19;;;;;;;0.93;0.30;;;17.40;26.20;;;;;;5012370;28;20037;-74
2021/01/19 03:45:46;;;;;;;2.60;0.80;;;17.50;26.30;;;;;;5012382;28;20093;-75
2021/01/19 03:48:13;;;;;;;1.30;0.20;;;17.40;26.50;;;;;;5012229;28;20022;-75
2021/01/19 03:50:40;;;;;;;2.70;0.20;;;17.40;26.80;;;;;;5011695;28;20516;-73
2021/01/19 03:53:07;;;;;;;6.65;0.40;;;17.30;26.70;;;;;;5010991;28;20033;-74
2021/01/19 03:55:34;;;;;;;3.10;0.40;;;17.40;26.40;;;;;;5003525;28;20030;-73
2021/01/19 03:58:01;;;;;;;1.45;0.20;;;17.40;26.70;;;;;;5011482;28;20030;-73
2021/01/19 04:00:28;;;;;;;0.25;0.20;;;17.50;26.60;;;;;;5005591;28;20030;-76
2021/01/19 04:02:55;;;;;;;1.27;0.20;;;17.50;26.30;;;;;;5006932;28;20049;-73
2021/01/19 04:05:22;;;;;;;0.95;0.30;;;17.40;26.90;;;;;;5012205;28;20030;-73
2021/01/19 04:07:50;;;;;;;2.25;0.30;;;17.40;26.90;;;;;;5010803;28;20038;-79
2021/01/19 04:10:17;;;;;;;2.30;0.20;;;17.40;26.50;;;;;;4993858;28;20038;-76
2021/01/19 04:12:44;;;;;;;2.35;0.20;;;17.30;26.50;;;;;;5010499;28;20041;-82
2021/01/19 04:15:12;;;;;;;1.27;0.20;;;17.30;26.80;;;;;;5011526;28;20029;-75
2021/01/19 04:17:39;;;;;;;2.88;0.80;;;17.50;26.40;;;;;;5011695;28;20529;-73
2021/01/19 04:20:07;;;;;;;2.88;0.50;;;17.50;26.80;;;;;;5011685;28;20038;-74
2021/01/19 04:22:34;;;;;;;0.40;0.30;;;17.40;26.90;;;;;;5011993;28;20037;-74
2021/01/19 04:25:01;;;;;;;1.52;0.20;;;17.30;26.80;;;;;;5011361;28;20030;-73
2021/01/19 04:27:31;;;;;;;0.82;0.30;;;17.20;26.90;;;;;;5009846;28;20038;-73
2021/01/19 04:29:58;;;;;;;1.23;0.40;;;17.30;26.90;;;;;;5011778;28;20026;-74
2021/01/19 04:32:25;;;;;;;7.93;0.57;;;17.10;27.00;;;;;;5011593;28;20037;-74
2021/01/19 04:34:52;;;;;;;1.15;0.45;;;17.10;27.00;;;;;;5011837;28;20026;-71
2021/01/19 04:37:19;;;;;;;2.15;0.30;;;17.10;26.80;;;;;;5013367;28;20044;-76
2021/01/19 04:39:46;;;;;;;0.77;0.35;;;17.10;27.10;;;;;;5012514;28;20018;-75
2021/01/19 04:42:19;;;;;;;1.58;0.40;;;17.00;27.10;;;;;;5011844;28;20378;-74
2021/01/19 04:44:48;;;;;;;1.00;0.40;;;17.00;27.00;;;;;;5011522;28;20042;-73
2021/01/19 04:47:17;;;;;;;1.73;0.30;;;16.90;26.60;;;;;;4993764;28;20048;-75
2021/01/19 04:49:52;;;;;;;5.15;0.40;;;17.00;26.60;;;;;;5011510;28;20026;-73
2021/01/19 04:52:22;;;;;;;3.67;0.50;;;17.00;26.90;;;;;;5010755;28;20057;-73
2021/01/19 04:55:04;;;;;;;2.45;0.40;;;17.00;26.80;;;;;;5010763;28;20038;-75
2021/01/19 04:57:35;;;;;;;1.48;0.20;;;17.10;26.70;;;;;;5001202;28;20482;-73
2021/01/19 05:00:16;;;;;;;0.77;0.43;;;17.00;26.30;;;;;;5011074;28;20454;-72
2021/01/19 05:03:00;;;;;;;1.58;0.30;;;17.10;26.30;;;;;;5007681;28;20052;-73
2021/01/19 05:05:39;;;;;;;2.05;0.20;;;17.00;26.90;;;;;;4977226;28;20038;-72
2021/01/19 05:08:18;;;;;;;0.73;0.30;;;16.90;26.70;;;;;;5011313;28;20045;-71
2021/01/19 05:11:03;;;;;;;0.55;0.30;;;16.90;26.80;;;;;;4993171;28;20386;-74
2021/01/19 05:13:49;;;;;;;3.20;0.32;;;16.80;27.30;;;;;;5014236;28;20042;-71
2021/01/19 05:16:18;;;;;;;1.10;0.28;;;16.80;26.70;;;;;;5014904;28;20030;-70
2021/01/19 05:18:46;;;;;;;1.10;0.30;;;17.00;26.40;;;;;;4996618;28;20037;-68
2021/01/19 05:21:14;;;;;;;2.70;0.65;;;17.20;26.30;;;;;;5014619;28;20025;-71
2021/01/19 05:23:41;;;;;;;2.05;0.30;;;17.10;26.50;;;;;;5013663;28;20038;-70
2021/01/19 05:26:11;;;;;;;4.97;0.57;;;17.10;26.70;;;;;;5014193;28;20034;-69
2021/01/19 05:28:41;;;;;;;2.05;0.30;;;17.00;26.60;;;;;;5014466;28;20393;-70
2021/01/19 05:31:25;;;;;;;4.43;0.50;;;17.10;26.40;;;;;;5013898;28;20037;-73
2021/01/19 05:34:06;;;;;;;3.30;0.40;;;17.20;26.30;;;;;;5013278;28;20041;-70
2021/01/19 05:36:36;;;;;;;5.63;0.47;;;17.20;26.30;;;;;;5013614;28;20394;-79
2021/01/19 05:39:05;;;;;;;5.03;0.50;;;17.10;26.40;;;;;;5014422;28;20041;-68
2021/01/19 05:41:45;;;;;;;4.97;0.45;;;17.20;26.20;;;;;;5013616;28;20040;-69
2021/01/19 05:44:16;;;;;;;0.70;0.30;;;17.10;26.30;;;;;;5013624;28;20026;-70
2021/01/19 05:46:59;;;;;;;0.63;0.30;;;17.10;26.40;;;;;;5013955;28;20033;-70
2021/01/19 05:49:28;;;;;;;2.25;0.45;;;17.10;26.60;;;;;;4981458;28;20042;-72
2021/01/19 05:52:06;;;;;;;3.40;0.38;;;16.90;26.60;;;;;;4996131;28;20367;-70
2021/01/19 05:54:35;;;;;;;2.50;0.40;;;16.80;26.40;;;;;;5013952;28;20628;-75
2021/01/19 05:57:03;;;;;;;2.50;0.30;;;16.70;26.80;;;;;;5013854;28;20030;-75
2021/01/19 05:59:34;;;;;;;0.98;0.38;;;16.70;26.70;;;;;;5013623;28;20038;-75
2021/01/19 06:02:03;;;;;;;0.83;0.30;;;16.70;26.80;;;;;;5013066;28;20034;-71
2021/01/19 06:04:40;;;;;;;0.30;0.20;;;16.60;26.50;;;;;;5013260;28;20030;-75
2021/01/19 06:07:07;;;;;;;0.85;0.20;;;16.50;27.00;;;;;;5012093;28;20041;-72
2021/01/19 06:09:35;;;;;;;2.53;0.68;;;16.50;26.90;;;;;;5011496;28;20561;-75
2021/01/19 06:12:03;;;;;;;4.13;0.43;;;16.30;27.10;;;;;;5013843;28;20054;-72
2021/01/19 06:14:31;;;;;;;0.57;0.25;;;16.30;27.00;;;;;;5014467;28;20029;-70
2021/01/19 06:17:15;;;;;;;0.35;0.22;;;16.30;27.20;;;;;;5013097;28;20034;-77
2021/01/19 06:19:43;;;;;;;0.93;0.30;;;16.10;27.30;;;;;;5013147;28;20122;-70
2021/01/19 06:22:13;;;;;;;1.48;0.20;;;16.10;27.40;;;;;;5012854;28;20645;-76
2021/01/19 06:24:44;;;;;;;0.25;0.20;;;16.00;27.60;;;;;;5013956;28;20462;-79
2021/01/19 06:27:23;;;;;;;1.75;0.20;;;15.80;27.80;;;;;;5012840;28;20046;-76
2021/01/19 06:30:07;;;;;;;2.33;0.47;;;15.70;27.80;;;;;;5014220;28;20037;-76
2021/01/19 06:32:48;;;;;;;0.90;0.20;;;15.60;27.80;;;;;;5013039;28;20453;-73
2021/01/19 06:35:23;;;;;;;1.50;0.40;;;15.50;28.10;;;;;;5012330;28;20049;-71
2021/01/19 06:37:54;;;;;;;1.55;0.38;;;15.40;28.00;;;;;;5012952;28;20049;-71
2021/01/19 06:40:23;;;;;;;0.73;0.30;;;15.40;28.20;;;;;;5002322;28;20406;-71
2021/01/19 06:43:02;;;;;;;0.98;0.43;;;15.40;28.00;;;;;;5013453;28;20030;-74
2021/01/19 06:45:30;;;;;;;1.73;0.30;;;15.50;28.10;;;;;;5010423;28;20057;-76
2021/01/19 06:48:00;;;;;;;3.28;0.20;;;15.60;28.20;;;;;;5013660;28;20026;-72
2021/01/19 06:50:29;;;;;;;1.57;0.30;;;15.60;28.20;;;;;;5012007;28;20065;-73
2021/01/19 06:53:33;;;;;;;2.70;0.32;;;15.50;28.30;;;;;;5013083;28;20056;-70
2021/01/19 06:56:09;;;;;;;4.47;0.40;;;15.50;28.10;;;;;;5011943;28;20483;-69
2021/01/19 06:59:11;;;;;;;2.47;0.30;;;15.50;28.10;;;;;;5012919;28;20034;-71
2021/01/19 07:01:43;;;;;;;2.60;0.30;;;15.40;28.00;;;;;;4913545;29;20043;-77
2021/01/19 07:04:13;;;;;;;4.15;0.40;;;15.40;28.20;;;;;;4914305;29;20040;-74
2021/01/19 07:07:10;;;;;;;1.13;0.63;;;15.30;28.00;;;;;;4912971;29;20536;-70
2021/01/19 07:10:03;;;;;;;1.98;0.22;;;15.20;28.00;;;;;;4913848;29;20069;-75
2021/01/19 07:12:53;;;;;;;1.98;0.20;;;15.30;27.70;;;;;;4913809;29;20429;-76
2021/01/19 07:15:52;;;;;;;0.35;0.13;;;15.20;28.10;;;;;;4895125;29;20052;-70
2021/01/19 07:18:45;;;;;;;2.70;0.20;;;15.30;27.80;;;;;;4895468;29;20032;-73
2021/01/19 07:21:17;;;;;;;2.22;0.30;;;15.20;28.00;;;;;;4894484;29;20040;-73
2021/01/19 07:23:47;;;;;;;1.65;0.40;;;15.10;27.60;;;;;;4894873;29;20074;-73
2021/01/19 07:26:21;;;;;;;2.95;0.40;;;15.20;27.70;;;;;;4894621;29;20049;-76
2021/01/19 07:28:52;;;;;;;2.38;0.30;;;15.00;27.60;;;;;;4895147;29;20048;-72
2021/01/19 07:31:21;;;;;;;1.30;0.20;;;14.90;27.40;;;;;;4894901;29;20036;-75
2021/01/19 07:33:58;;;;;;;2.80;0.20;;;14.90;27.10;;;;;;4894403;29;20045;-75
2021/01/19 07:36:27;;;;;;;0.65;0.20;;;14.80;27.10;;;;;;4879697;29;20077;-75
2021/01/19 07:38:55;;;;;;;1.95;0.10;;;14.80;27.30;;;;;;4937546;28;20050;-72
2021/01/19 07:41:29;;;;;;;2.72;0.20;;;14.70;27.20;;;;;;4969957;28;20043;-75
2021/01/19 07:43:56;;;;;;;4.95;0.30;;;14.70;27.10;;;;;;4970838;28;20038;-72
2021/01/19 07:46:30;;;;;;;4.00;0.30;;;14.70;26.70;;;;;;4970899;28;20050;-76
2021/01/19 07:49:03;;;;;;;0.25;0.15;;;14.80;26.60;;;;;;4973263;28;20041;-74
2021/01/19 07:51:42;;;;;;;3.42;0.43;;;14.70;26.70;;;;;;4974957;28;20043;-77
2021/01/19 07:54:31;;;;;;;2.30;0.40;;;14.70;26.80;;;;;;4993283;28;20406;-76
2021/01/19 07:57:11;;;;;;;4.80;0.40;;;14.60;26.80;;;;;;5010994;28;20045;-76
2021/01/19 07:59:39;;;;;;;4.73;0.30;;;14.60;26.60;;;;;;5011816;28;20374;-71
2021/01/19 08:02:06;;;;;;;2.17;0.20;;;14.60;26.70;;;;;;5010841;28;20034;-70
2021/01/19 08:04:37;;;;;;;0.35;0.10;;;14.60;27.10;;;;;;5011742;28;20037;-76
2021/01/19 08:07:14;;;;;;;0.65;0.20;;;14.50;27.10;;;;;;5011303;28;20038;-76
2021/01/19 08:09:41;;;;;;;1.75;0.15;;;14.40;27.00;;;;;;5008217;28;20386;-75
2021/01/19 08:12:14;;;;;;;1.38;0.22;;;14.30;27.20;;;;;;5011484;28;20034;-73
2021/01/19 08:14:43;;;;;;;0.93;0.10;;;14.20;27.20;;;;;;5009609;28;20048;-76
2021/01/19 08:17:14;;;;;;;1.77;0.10;;;14.20;27.30;;;;;;5011033;28;20025;-77
2021/01/19 08:19:47;;;;;;;1.45;0.15;;;14.10;27.60;;;;;;5011625;28;20030;-75
2021/01/19 08:22:23;;;;;;;1.48;0.10;;;14.00;27.60;;;;;;5011184;28;20030;-80
2021/01/19 08:24:59;;;;;;;1.73;0.38;;;14.00;28.00;;;;;;5011158;28;20022;-79
2021/01/19 08:27:36;;;;;;;5.28;0.38;;;13.90;27.80;;;;;;5010089;28;20068;-71
2021/01/19 08:30:08;;;;;;;4.10;0.30;;;13.80;28.30;;;;;;5011382;28;20018;-77
2021/01/19 08:32:35;;;;;;;11.48;2.97;;;13.70;28.50;;;;;;5010800;28;20042;-75
2021/01/19 08:35:04;;;;;;;3.55;0.40;;;13.70;28.40;;;;;;5011502;28;20478;-71
2021/01/19 08:37:34;;;;;;;5.07;0.30;;;13.70;28.70;;;;;;5010849;28;20065;-77
2021/01/19 08:40:03;;;;;;;2.90;0.85;;;13.60;28.70;;;;;;5011483;28;20026;-74
2021/01/19 08:42:32;;;;;;;2.90;0.30;;;13.50;29.00;;;;;;5010077;28;20553;-76
2021/01/19 08:45:00;;;;;;;3.75;0.20;;;13.50;28.90;;;;;;5011079;28;20291;-75
2021/01/19 08:47:30;;;;;;;4.68;0.30;;;13.40;29.50;;;;;;5012083;28;20034;-78
2021/01/19 08:49:57;;;;;;;5.93;0.22;;;13.40;29.60;;;;;;5013940;28;20042;-72
2021/01/19 08:52:28;;;;;;;0.60;0.20;;;13.40;29.40;;;;;;5013897;28;20050;-70
2021/01/19 08:54:55;;;;;;;2.13;0.35;;;13.30;29.50;;;;;;5015417;28;20033;-69
2021/01/19 08:57:22;;;;;;;3.00;0.28;;;13.30;29.60;;;;;;5014615;28;20046;-76
2021/01/19 08:59:52;;;;;;;6.82;0.60;;;13.20;29.80;;;;;;5014043;28;20039;-74
2021/01/19 09:02:19;;;;;;;2.88;0.32;;;13.20;29.80;;;;;;5014043;28;20042;-72
2021/01/19 09:04:47;;;;;;;3.72;0.30;;;13.10;29.80;;;;;;5014496;28;20033;-73
2021/01/19 09:07:13;;;;;;;0.73;0.20;;;13.10;30.00;;;;;;5013856;28;20061;-76
2021/01/19 09:09:47;;;;;;;2.13;0.20;;;12.90;30.00;;;;;;5014984;28;20029;-72
2021/01/19 09:12:22;;;;;;;5.10;0.45;;;12.90;30.30;;;;;;5015035;28;20048;-71
2021/01/19 09:14:54;;;;;;;8.88;0.50;;;12.90;30.20;;;;;;5014140;28;20038;-70
2021/01/19 09:17:26;;;;;;;8.90;0.88;;;12.80;30.40;;;;;;5014738;28;20815;-70
2021/01/19 09:20:08;;;;;;;3.88;0.30;;;12.70;30.40;;;;;;5012693;28;20034;-71
2021/01/19 09:22:36;;;;;;;4.05;0.40;;;12.60;30.40;;;;;;5017161;28;20026;-71
2021/01/19 09:25:04;;;;;;;8.30;0.43;;;12.60;30.60;;;;;;5014301;28;20037;-75
2021/01/19 09:27:32;;;;;;;2.85;0.30;;;12.50;30.80;;;;;;4996944;28;20050;-69
2021/01/19 09:30:11;;;;;;;16.80;1.15;;;12.50;30.60;;;;;;5013738;28;20049;-70
2021/01/19 09:32:43;;;;;;;3.50;0.28;;;12.40;30.90;;;;;;5013844;28;20069;-72
2021/01/19 09:35:13;;;;;;;;;;;12.30;31.20;;;;;;5014039;28;20386;-75
2021/01/19 09:37:41;;;;;;;4.90;0.10;;;12.30;31.20;;;;;;5011058;28;19917;-74
2021/01/19 09:40:09;;;;;;;10.35;0.50;;;12.20;31.50;;;;;;5014798;28;20026;-72
2021/01/19 09:42:41;;;;;;;5.18;0.40;;;12.10;31.80;;;;;;4995755;28;20393;-76
2021/01/19 09:45:12;;;;;;;5.93;0.40;;;12.10;32.10;;;;;;5013122;28;20394;-77
2021/01/19 09:47:42;;;;;;;3.38;0.20;;;12.00;32.10;;;;;;5012967;28;20045;-71
2021/01/19 09:50:10;;;;;;;3.42;0.28;;;12.00;32.10;;;;;;4996153;28;20470;-67
2021/01/19 09:52:43;;;;;;;1.77;0.20;;;11.90;32.30;;;;;;5014054;28;20034;-75
2021/01/19 09:55:17;;;;;;;8.35;0.35;;;11.90;32.70;;;;;;5014642;28;20516;-75
2021/01/19 09:57:47;;;;;;;5.32;0.30;;;11.80;32.80;;;;;;5012880;28;20073;-69
2021/01/19 10:00:14;;;;;;;1.85;0.10;;;11.70;32.70;;;;;;5014078;28;20018;-71
2021/01/19 10:02:42;;;;;;;2.40;0.22;;;11.70;32.90;;;;;;5014222;28;20034;-69
2021/01/19 10:05:09;;;;;;;5.15;0.20;;;11.60;32.80;;;;;;5008014;28;20030;-75
2021/01/19 10:07:36;;;;;;;1.00;0.30;;;11.60;33.00;;;;;;5005195;28;20033;-77
2021/01/19 10:10:11;;;;;;;7.93;0.65;;;11.60;33.20;;;;;;5014706;28;20033;-73
2021/01/19 10:12:39;;;;;;;4.70;0.70;;;11.50;33.40;;;;;;5013591;28;20038;-74
2021/01/19 10:15:07;;;;;;;9.43;0.30;;;11.40;33.40;;;;;;4996959;28;20025;-74
2021/01/19 10:17:35;;;;;;;6.35;0.30;;;11.40;33.50;;;;;;5013141;28;20490;-74
2021/01/19 10:20:15;;;;;;;3.42;0.40;;;11.30;33.80;;;;;;5013871;28;20041;-73
2021/01/19 10:22:45;;;;;;;2.58;0.25;;;11.40;33.50;;;;;;5013668;28;20502;-71
2021/01/19 10:25:25;;;;;;;5.90;0.30;;;11.30;33.40;;;;;;5012876;28;20046;-76
2021/01/19 10:27:59;;;;;;;3.60;0.90;;;11.30;33.40;;;;;;5013693;28;20466;-69
2021/01/19 10:30:42;;;;;;;6.90;0.68;;;11.30;33.30;;;;;;5013764;28;20026;-75
2021/01/19 10:33:23;;;;;;;0.95;0.20;;;11.30;33.20;;;;;;5013164;28;20038;-70
2021/01/19 10:35:51;;;;;;;2.70;0.40;;;11.30;33.40;;;;;;5013864;28;20478;-74
2021/01/19 10:38:26;;;;;;;4.85;0.32;;;11.30;33.10;;;;;;5013680;28;20041;-72
2021/01/19 10:40:53;;;;;;;17.60;1.60;;;11.20;33.20;;;;;;5012940;28;20038;-71
2021/01/19 10:43:20;;;;;;;0.32;0.10;;;11.20;32.80;;;;;;5011811;28;20038;-70
2021/01/19 10:45:47;;;;;;;1.25;0.20;;;11.10;33.40;;;;;;4995518;28;20049;-74
2021/01/19 10:48:21;;;;;;;3.78;0.22;;;11.00;33.10;;;;;;5013373;28;20033;-73
2021/01/19 10:50:49;;;;;;;1.00;0.28;;;11.00;33.50;;;;;;5012426;28;20045;-75
2021/01/19 10:53:29;;;;;;;1.95;0.47;;;11.10;32.80;;;;;;5012994;28;20038;-71
2021/01/19 10:55:56;;;;;;;6.47;0.32;;;11.10;32.70;;;;;;5013088;28;20409;-68
2021/01/19 10:58:23;;;;;;;2.25;0.68;;;11.10;32.30;;;;;;5012905;28;20486;-74
2021/01/19 11:00:50;;;;;;;3.95;0.17;;;11.00;32.90;;;;;;5013139;28;20034;-71
2021/01/19 11:03:17;;;;;;;5.60;0.63;;;11.00;32.50;;;;;;5012763;28;20037;-74
2021/01/19 11:05:44;;;;;;;5.22;0.55;;;11.10;32.00;;;;;;5013072;28;20044;-74
2021/01/19 11:08:11;;;;;;;6.32;0.30;;;11.00;32.20;;;;;;4994590;28;20042;-74
2021/01/19 11:10:37;;;;;;;1.10;0.20;;;11.00;32.20;;;;;;5012328;28;20033;-69
2021/01/19 11:13:05;;;;;;;10.48;0.55;;;10.90;32.10;;;;;;5012414;28;20375;-68
2021/01/19 11:15:34;;;;;;;5.35;0.40;;;11.00;31.90;;;;;;5011857;28;20463;-68
2021/01/19 11:18:01;;;;;;;8.38;0.40;;;11.00;32.20;;;;;;5012634;28;20057;-72
2021/01/19 11:20:28;;;;;;;13.57;0.80;;;10.90;32.50;;;;;;5012892;28;20026;-75
2021/01/19 11:22:59;;;;;;;5.78;0.40;;;10.80;32.40;;;;;;5012087;28;20046;-73
2021/01/19 11:25:26;;;;;;;10.18;0.40;;;10.80;32.30;;;;;;5011685;28;20042;-69
2021/01/19 11:27:52;;;;;;;1.05;0.30;;;10.70;32.40;;;;;;5011192;28;20400;-72
2021/01/19 11:30:20;;;;;;;2.60;0.30;;;10.70;32.50;;;;;;5012869;28;20026;-72
2021/01/19 11:32:47;;;;;;;6.97;0.40;;;10.70;32.50;;;;;;5014045;28;20073;-73
2021/01/19 11:35:14;;;;;;;7.65;0.40;;;10.70;32.60;;;;;;5012317;28;20041;-73
2021/01/19 11:37:40;;;;;;;4.72;0.40;;;10.60;32.50;;;;;;5012416;28;20037;-70
2021/01/19 11:40:08;;;;;;;5.97;0.50;;;10.70;32.20;;;;;;5011312;28;20038;-70
2021/01/19 11:42:35;;;;;;;3.28;0.30;;;10.60;33.10;;;;;;5012181;28;20022;-76
2021/01/19 11:45:03;;;;;;;15.20;2.35;;;10.60;32.20;;;;;;5011171;28;20410;-74
2021/01/19 11:47:31;;;;;;;4.60;0.38;;;10.50;32.80;;;;;;5012213;28;20133;-71
2021/01/19 11:49:58;;;;;;;3.72;0.20;;;10.50;32.40;;;;;;5012088;28;20034;-76
2021/01/19 11:52:25;;;;;;;5.90;0.40;;;10.50;32.00;;;;;;4994711;28;20034;-77
2021/01/19 11:54:52;;;;;;;3.75;0.38;;;10.60;32.00;;;;;;5012054;28;20056;-71
2021/01/19 11:57:19;;;;;;;7.72;0.38;;;10.50;32.20;;;;;;5011820;28;20510;-69
2021/01/19 11:59:46;;;;;;;9.00;0.93;;;10.60;31.80;;;;;;5011854;28;20030;-69
2021/01/19 12:02:13;;;;;;;3.92;0.30;;;10.60;32.00;;;;;;5008843;28;20022;-70
2021/01/19 12:04:40;;;;;;;8.95;0.25;;;10.60;31.90;;;;;;5010697;28;20034;-71
2021/01/19 12:07:07;;;;;;;5.63;0.38;;;10.50;32.20;;;;;;5012391;28;20045;-71
2021/01/19 12:09:35;;;;;;;4.75;0.32;;;10.50;32.40;;;;;;5011151;28;20030;-69
2021/01/19 12:12:02;;;;;;;3.70;0.20;;;10.40;32.50;;;;;;5011911;28;20052;-70
2021/01/19 12:14:29;;;;;;;5.75;0.30;;;10.40;32.70;;;;;;5011565;28;20037;-70
2021/01/19 12:16:59;;;;;;;5.72;0.50;;;10.40;32.70;;;;;;5011663;28;20026;-70
2021/01/19 12:19:26;;;;;;;3.85;0.20;;;10.40;32.90;;;;;;5010635;28;20137;-75
2021/01/19 12:21:55;;;;;;;4.75;0.20;;;10.30;33.10;;;;;;5011790;28;20028;-74
2021/01/19 12:24:23;;;;;;;7.43;0.30;;;10.30;33.10;;;;;;5011383;28;20045;-70
2021/01/19 12:26:52;;;;;;;0.55;0.28;;;10.30;33.10;;;;;;5011996;28;20025;-70
2021/01/19 12:29:20;;;;;;;5.50;0.30;;;10.30;33.00;;;;;;5011501;28;20033;-72
2021/01/19 12:31:48;;;;;;;4.68;0.28;;;10.30;33.00;;;;;;4993779;28;20057;-71
2021/01/19 12:34:16;;;;;;;6.57;1.30;;;10.30;33.20;;;;;;5011385;28;20049;-78
2021/01/19 12:36:43;;;;;;;3.53;0.30;;;10.20;33.50;;;;;;5011038;28;20049;-70
2021/01/19 12:39:10;;;;;;;3.10;0.52;;;10.20;33.10;;;;;;5010950;28;20044;-73
2021/01/19 12:41:38;;;;;;;8.90;0.32;;;10.10;33.60;;;;;;5011514;28;20029;-71
2021/01/19 12:44:05;;;;;;;1.40;0.30;;;10.20;33.40;;;;;;5011372;28;20460;-72
2021/01/19 12:46:33;;;;;;;5.25;0.38;;;10.20;33.30;;;;;;5010139;28;20498;-70
2021/01/19 12:49:02;;;;;;;2.28;0.30;;;10.20;33.30;;;;;;5011666;28;20041;-70
2021/01/19 12:51:29;;;;;;;4.25;0.32;;;10.10;33.30;;;;;;5011415;28;20497;-68
2021/01/19 12:53:56;;;;;;;0.77;0.28;;;10.10;33.30;;;;;;5011391;28;20406;-72
2021/01/19 12:56:23;;;;;;;2.80;0.45;;;10.10;33.30;;;;;;5011391;28;20030;-72
2021/01/19 12:58:50;;;;;;;2.47;0.52;;;10.10;33.80;;;;;;5010427;28;20415;-75
2021/01/19 13:01:16;;;;;;;6.70;0.30;;;10.10;33.50;;;;;;5011609;28;20025;-72
2021/01/19 13:03:43;;;;;;;4.07;0.20;;;10.10;33.30;;;;;;5013412;28;20474;-70
2021/01/19 13:06:11;;;;;;;2.38;0.50;;;10.10;33.70;;;;;;5012086;28;20026;-70
2021/01/19 13:08:39;;;;;;;4.80;0.40;;;10.00;34.10;;;;;;5011182;28;20037;-72